createdAt,value
2023-05-02T00:02:42.878Z,13.33
2023-05-02T00:07:46.447Z,13.19
2023-05-02T00:12:50.697Z,13.24
2023-05-02T00:17:53.654Z,13.14
2023-05-02T00:22:57.192Z,13.12
2023-05-02T00:28:01.562Z,13.15
2023-05-02T00:33:07.038Z,13.29
2023-05-02T00:38:10.263Z,13.13
2023-05-02T00:43:14.906Z,13.07
2023-05-02T00:48:20.604Z,13.11
2023-05-02T00:53:23.509Z,13.13
2023-05-02T00:58:29.379Z,13.24
2023-05-02T01:03:41.026Z,13.29
2023-05-02T01:08:51.675Z,13.19
2023-05-02T01:13:57.698Z,13.14
2023-05-02T01:19:03.059Z,13.10
2023-05-02T01:24:12.207Z,13.10
2023-05-02T01:29:18.744Z,13.11
2023-05-02T01:34:22.482Z,13.10
2023-05-02T01:39:27.075Z,13.13
2023-05-02T01:44:34.030Z,13.12
2023-05-02T01:49:38.632Z,13.12
2023-05-02T01:54:42.533Z,13.09
2023-05-02T01:59:48.859Z,13.09
2023-05-02T02:04:53.999Z,13.07
2023-05-02T02:09:56.937Z,13.09
2023-05-02T02:15:05.227Z,13.09
2023-05-02T02:20:11.924Z,13.06
2023-05-02T02:25:17.172Z,13.04
2023-05-02T02:30:21.460Z,13.00
2023-05-02T02:35:24.639Z,13.06
2023-05-02T02:40:32.554Z,12.91
2023-05-02T02:45:40.145Z,13.01
2023-05-02T02:50:54.189Z,13.04
2023-05-02T02:56:01.737Z,13.17
2023-05-02T03:01:12.230Z,13.13
2023-05-02T03:06:15.756Z,13.19
2023-05-02T03:11:18.860Z,13.11
2023-05-02T03:16:40.208Z,13.04
2023-05-02T03:21:47.471Z,13.08
2023-05-02T03:26:56.940Z,12.85
2023-05-02T03:32:05.534Z,12.85
2023-05-02T03:37:09.216Z,12.85
2023-05-02T03:42:12.257Z,12.70
2023-05-02T03:47:16.586Z,12.66
2023-05-02T03:52:20.508Z,12.66
2023-05-02T03:57:24.979Z,12.64
2023-05-02T04:02:30.898Z,12.63
2023-05-02T04:07:34.300Z,12.64
2023-05-02T04:12:40.272Z,12.64
2023-05-02T04:17:45.264Z,12.61
2023-05-02T04:22:50.252Z,12.70
2023-05-02T04:27:53.525Z,12.76
2023-05-02T04:33:00.686Z,12.79
2023-05-02T04:38:08.418Z,12.86
2023-05-02T04:43:14.171Z,12.88
2023-05-02T04:48:27.126Z,12.91
2023-05-02T04:53:30.106Z,12.87
2023-05-02T04:58:35.113Z,12.90
2023-05-02T05:03:42.480Z,12.94
2023-05-02T05:08:46.558Z,13.04
2023-05-02T05:13:51.427Z,13.15
2023-05-02T05:18:56.292Z,13.27
2023-05-02T05:23:59.948Z,13.40
2023-05-02T05:29:05.190Z,13.43
2023-05-02T05:34:16.446Z,13.64
2023-05-02T05:39:20.741Z,13.61
2023-05-02T05:44:26.257Z,13.78
2023-05-02T05:49:30.949Z,13.89
2023-05-02T05:54:33.945Z,13.97
2023-05-02T05:59:37.436Z,14.15
2023-05-02T06:04:43.454Z,14.67
2023-05-02T06:09:47.301Z,15.08
2023-05-02T06:14:51.853Z,15.05
2023-05-02T06:19:56.483Z,15.04
2023-05-02T06:25:00.138Z,14.97
2023-05-02T06:30:03.557Z,15.44
2023-05-02T06:35:08.891Z,15.70
2023-05-02T06:40:13.532Z,15.69
2023-05-02T06:45:16.560Z,15.66
2023-05-02T06:50:21.407Z,15.71
2023-05-02T06:55:24.276Z,15.77
2023-05-02T07:00:27.241Z,15.74
2023-05-02T07:05:31.965Z,15.17
2023-05-02T07:10:35.004Z,14.98
2023-05-02T07:15:37.914Z,15.57
2023-05-02T07:20:42.539Z,15.16
2023-05-02T07:25:45.638Z,15.31
2023-05-02T07:30:48.569Z,14.95
2023-05-02T07:35:52.908Z,14.23
2023-05-02T07:40:59.136Z,14.44
2023-05-02T07:46:05.637Z,14.53
2023-05-02T07:51:11.595Z,14.22
2023-05-02T07:56:14.620Z,14.89
2023-05-02T08:01:18.742Z,14.91
2023-05-02T08:06:23.547Z,15.39
2023-05-02T08:11:26.534Z,14.89
2023-05-02T08:16:32.450Z,16.01
2023-05-02T08:21:36.811Z,15.30
2023-05-02T08:26:39.681Z,15.15
2023-05-02T08:31:42.817Z,14.46
2023-05-02T08:36:48.152Z,15.19
2023-05-02T08:41:51.264Z,15.35
2023-05-02T08:46:57.427Z,14.95
2023-05-02T08:52:02.737Z,15.46
2023-05-02T08:57:07.140Z,15.08
2023-05-02T09:02:19.113Z,14.97
2023-05-02T09:07:23.423Z,15.22
2023-05-02T09:12:27.671Z,16.20
2023-05-02T09:17:40.813Z,16.85
2023-05-02T09:22:51.380Z,17.00
2023-05-02T09:27:55.964Z,16.65
2023-05-02T09:32:59.112Z,15.53
2023-05-02T09:38:03.682Z,15.24
2023-05-02T09:43:17.115Z,16.72
2023-05-02T09:48:20.024Z,14.87
2023-05-02T09:53:26.296Z,16.14
2023-05-02T09:58:30.870Z,16.57
2023-05-02T10:03:39.043Z,16.85
2023-05-02T10:08:44.128Z,15.99
2023-05-02T10:13:47.960Z,16.72
2023-05-02T10:19:00.067Z,16.60
2023-05-02T10:24:05.033Z,15.97
2023-05-02T10:29:08.164Z,15.99
2023-05-02T10:34:13.493Z,16.71
2023-05-02T10:39:19.664Z,17.11
2023-05-02T10:44:33.917Z,15.99
2023-05-02T10:49:51.904Z,16.57
2023-05-02T10:55:15.301Z,16.86
2023-05-02T11:00:25.331Z,17.07
2023-05-02T11:05:29.338Z,16.90
2023-05-02T11:10:33.602Z,15.19
2023-05-02T11:15:55.971Z,15.12
2023-05-02T11:21:27.537Z,17.15
2023-05-02T11:26:32.818Z,17.96
2023-05-02T11:32:02.840Z,17.75
2023-05-02T11:37:12.491Z,16.31
2023-05-02T11:42:32.379Z,16.61
2023-05-02T11:47:35.410Z,18.39
2023-05-02T11:52:39.468Z,17.07
2023-05-02T11:57:43.965Z,17.71
2023-05-02T12:02:48.947Z,18.06
2023-05-02T12:07:51.904Z,17.17
2023-05-02T12:13:06.219Z,16.89
2023-05-02T12:18:09.889Z,16.28
2023-05-02T12:23:13.166Z,16.96
2023-05-02T12:28:18.841Z,18.75
2023-05-02T12:33:21.831Z,16.60
2023-05-02T12:38:25.814Z,15.81
2023-05-02T12:43:44.491Z,17.64
2023-05-02T12:48:47.494Z,17.10
2023-05-02T12:53:50.463Z,17.84
2023-05-02T12:58:54.734Z,16.61
2023-05-02T13:03:57.776Z,18.05
2023-05-02T13:09:00.952Z,16.03
2023-05-02T13:14:05.990Z,17.70
2023-05-02T13:19:09.003Z,18.42
2023-05-02T13:24:11.945Z,16.26
2023-05-02T13:29:16.203Z,16.69
2023-05-02T13:34:19.201Z,15.85
2023-05-02T13:39:22.118Z,17.58
2023-05-02T13:44:26.366Z,16.66
2023-05-02T13:49:29.310Z,16.37
2023-05-02T13:54:32.437Z,16.95
2023-05-02T13:59:36.711Z,16.70
2023-05-02T14:04:39.644Z,17.42
2023-05-02T14:09:42.495Z,17.59
2023-05-02T14:14:46.851Z,17.80
2023-05-02T14:19:49.708Z,16.59
2023-05-02T14:24:52.773Z,17.24
2023-05-02T14:29:57.102Z,17.02
2023-05-02T14:35:00.010Z,17.84
2023-05-02T14:40:03.165Z,17.79
2023-05-02T14:45:09.436Z,15.76
2023-05-02T14:50:12.424Z,15.80
2023-05-02T14:55:16.010Z,14.44
2023-05-02T15:00:21.149Z,13.81
2023-05-02T15:05:24.096Z,13.86
2023-05-02T15:10:27.001Z,13.03
2023-05-02T15:15:31.268Z,13.24
2023-05-02T15:20:34.204Z,13.34
2023-05-02T15:25:37.136Z,13.11
2023-05-02T15:30:41.792Z,13.28
2023-05-02T15:35:54.361Z,14.21
2023-05-02T15:40:58.013Z,14.32
2023-05-02T15:46:02.303Z,13.47
2023-05-02T15:51:06.564Z,13.67
2023-05-02T15:56:10.093Z,13.40
2023-05-02T16:01:14.353Z,13.53
2023-05-02T16:06:17.609Z,13.36
2023-05-02T16:11:21.045Z,13.16
2023-05-02T16:16:25.709Z,13.00
2023-05-02T16:21:28.677Z,12.87
2023-05-02T16:26:45.477Z,12.93
2023-05-02T16:31:48.427Z,12.65
2023-05-02T16:36:51.508Z,12.87
2023-05-02T16:41:55.895Z,12.98
2023-05-02T16:46:58.883Z,12.85
2023-05-02T16:52:01.759Z,12.90
2023-05-02T16:57:06.030Z,12.80
2023-05-02T17:02:08.973Z,12.50
2023-05-02T17:07:12.865Z,12.18
2023-05-02T17:12:22.396Z,12.30
2023-05-02T17:17:25.400Z,12.19
2023-05-02T17:22:28.250Z,12.44
2023-05-02T17:27:32.518Z,12.69
2023-05-02T17:32:37.701Z,12.44
2023-05-02T17:37:40.985Z,12.30
2023-05-02T17:42:45.606Z,12.17
2023-05-02T17:47:48.599Z,12.35
2023-05-02T17:52:51.898Z,12.17
2023-05-02T17:57:58.599Z,12.20
2023-05-02T18:03:02.033Z,12.42
2023-05-02T18:08:05.374Z,12.57
2023-05-02T18:13:10.372Z,11.83
2023-05-02T18:18:13.506Z,11.73
2023-05-02T18:23:17.000Z,11.63
2023-05-02T18:28:21.380Z,11.52
2023-05-02T18:33:24.323Z,11.36
2023-05-02T18:38:27.445Z,11.34
2023-05-02T18:43:33.618Z,11.35
2023-05-02T18:48:36.997Z,11.34
2023-05-02T18:53:39.920Z,11.72
2023-05-02T18:58:44.244Z,11.76
2023-05-02T19:03:47.154Z,11.76
2023-05-02T19:08:50.413Z,11.23
2023-05-02T19:13:56.759Z,11.25
2023-05-02T19:18:59.663Z,11.21
2023-05-02T19:24:02.810Z,11.28
2023-05-02T19:29:07.111Z,11.10
2023-05-02T19:34:10.170Z,11.25
2023-05-02T19:39:13.221Z,11.04
2023-05-02T19:44:18.076Z,10.91
2023-05-02T19:49:20.956Z,10.91
2023-05-02T19:54:23.828Z,11.09
2023-05-02T19:59:28.144Z,11.08
2023-05-02T20:04:31.099Z,11.04
2023-05-02T20:09:34.045Z,11.00
2023-05-02T20:14:38.291Z,11.00
2023-05-02T20:19:41.173Z,10.98
2023-05-02T20:24:44.246Z,11.05
2023-05-02T20:29:48.545Z,10.90
2023-05-02T20:34:51.473Z,10.39
2023-05-02T20:39:54.672Z,10.58
2023-05-02T20:44:59.875Z,10.44
2023-05-02T20:50:03.322Z,10.55
2023-05-02T20:55:07.378Z,10.59
2023-05-02T21:00:13.724Z,10.60
2023-05-02T21:05:16.815Z,10.63
2023-05-02T21:10:19.897Z,10.69
2023-05-02T21:15:24.150Z,10.77
2023-05-02T21:20:27.687Z,10.87
2023-05-02T21:25:30.661Z,10.81
2023-05-02T21:30:35.848Z,10.91
2023-05-02T21:35:38.890Z,10.98
2023-05-02T21:40:41.748Z,10.80
2023-05-02T21:45:46.725Z,10.67
2023-05-02T21:50:49.682Z,10.51
2023-05-02T21:55:53.594Z,10.46
2023-05-02T22:00:57.902Z,10.72
2023-05-02T22:06:05.797Z,10.69
2023-05-02T22:11:09.573Z,10.81
2023-05-02T22:16:14.016Z,10.69
2023-05-02T22:21:18.827Z,10.69
2023-05-02T22:26:22.852Z,10.62
2023-05-02T22:31:27.632Z,10.79
2023-05-02T22:36:31.239Z,10.78
2023-05-02T22:41:34.141Z,10.82
2023-05-02T22:46:39.505Z,10.79
2023-05-02T22:51:42.861Z,10.77
2023-05-02T22:56:45.878Z,10.66
2023-05-02T23:01:50.809Z,10.64
2023-05-02T23:06:54.211Z,10.62
2023-05-02T23:11:57.243Z,10.54
2023-05-02T23:17:02.471Z,10.52
2023-05-02T23:22:05.412Z,10.55
2023-05-02T23:27:08.397Z,10.49
2023-05-02T23:32:12.959Z,10.50
2023-05-02T23:37:16.082Z,10.31
2023-05-02T23:42:19.017Z,10.46
2023-05-02T23:47:24.730Z,10.31
2023-05-02T23:52:27.620Z,10.38
2023-05-02T23:57:30.668Z,10.19
